sensor_id;sensor_type;location;lat;lon;timestamp;P1;durP1;ratioP1;P2;durP2;ratioP2
53253;SDS011;39148;53.332;6.922;2023-03-26T00:00:45;7.93;;;1.40;;
53253;SDS011;39148;53.332;6.922;2023-03-26T00:03:14;10.93;;;1.70;;
53253;SDS011;39148;53.332;6.922;2023-03-26T00:05:42;11.38;;;1.50;;
53253;SDS011;39148;53.332;6.922;2023-03-26T00:08:10;8.05;;;1.27;;
53253;SDS011;39148;53.332;6.922;2023-03-26T00:10:37;13.80;;;1.70;;
53253;SDS011;39148;53.332;6.922;2023-03-26T00:13:04;12.55;;;1.65;;
53253;SDS011;39148;53.332;6.922;2023-03-26T00:15:31;9.20;;;1.27;;
53253;SDS011;39148;53.332;6.922;2023-03-26T00:17:58;11.38;;;1.92;;
53253;SDS011;39148;53.332;6.922;2023-03-26T00:20:27;9.20;;;1.60;;
53253;SDS011;39148;53.332;6.922;2023-03-26T00:22:54;10.75;;;1.50;;
53253;SDS011;39148;53.332;6.922;2023-03-26T00:25:21;9.80;;;1.63;;
53253;SDS011;39148;53.332;6.922;2023-03-26T00:27:48;11.52;;;1.83;;
53253;SDS011;39148;53.332;6.922;2023-03-26T00:30:14;10.23;;;1.55;;
53253;SDS011;39148;53.332;6.922;2023-03-26T00:32:41;10.82;;;2.25;;
53253;SDS011;39148;53.332;6.922;2023-03-26T00:35:07;10.45;;;1.80;;
53253;SDS011;39148;53.332;6.922;2023-03-26T00:37:35;8.35;;;1.40;;
53253;SDS011;39148;53.332;6.922;2023-03-26T00:40:00;11.02;;;1.40;;
53253;SDS011;39148;53.332;6.922;2023-03-26T00:42:31;9.30;;;1.73;;
53253;SDS011;39148;53.332;6.922;2023-03-26T00:44:57;7.10;;;1.27;;
53253;SDS011;39148;53.332;6.922;2023-03-26T00:47:23;11.02;;;1.95;;
53253;SDS011;39148;53.332;6.922;2023-03-26T00:49:50;9.18;;;1.48;;
53253;SDS011;39148;53.332;6.922;2023-03-26T00:52:16;7.15;;;1.30;;
53253;SDS011;39148;53.332;6.922;2023-03-26T00:54:46;8.02;;;1.40;;
53253;SDS011;39148;53.332;6.922;2023-03-26T00:57:15;14.80;;;2.17;;
53253;SDS011;39148;53.332;6.922;2023-03-26T00:59:41;9.73;;;1.73;;
53253;SDS011;39148;53.332;6.922;2023-03-26T01:02:09;8.43;;;1.45;;
53253;SDS011;39148;53.332;6.922;2023-03-26T01:04:38;11.85;;;1.88;;
53253;SDS011;39148;53.332;6.922;2023-03-26T01:07:08;9.75;;;1.50;;
53253;SDS011;39148;53.332;6.922;2023-03-26T01:09:38;10.05;;;1.73;;
53253;SDS011;39148;53.332;6.922;2023-03-26T01:12:12;13.73;;;1.77;;
53253;SDS011;39148;53.332;6.922;2023-03-26T01:14:42;10.55;;;1.52;;
53253;SDS011;39148;53.332;6.922;2023-03-26T01:17:09;8.80;;;1.58;;
53253;SDS011;39148;53.332;6.922;2023-03-26T01:19:44;9.88;;;1.70;;
53253;SDS011;39148;53.332;6.922;2023-03-26T01:22:21;9.70;;;1.75;;
53253;SDS011;39148;53.332;6.922;2023-03-26T01:24:49;10.45;;;1.83;;
53253;SDS011;39148;53.332;6.922;2023-03-26T01:30:36;12.68;;;1.90;;
53253;SDS011;39148;53.332;6.922;2023-03-26T01:41:37;10.02;;;1.50;;
53253;SDS011;39148;53.332;6.922;2023-03-26T01:46:51;10.10;;;1.63;;
53253;SDS011;39148;53.332;6.922;2023-03-26T01:49:18;11.77;;;2.38;;
53253;SDS011;39148;53.332;6.922;2023-03-26T01:51:45;9.88;;;1.75;;
53253;SDS011;39148;53.332;6.922;2023-03-26T01:54:15;11.02;;;1.58;;
53253;SDS011;39148;53.332;6.922;2023-03-26T01:59:42;9.30;;;1.42;;
53253;SDS011;39148;53.332;6.922;2023-03-26T02:05:28;10.05;;;1.70;;
53253;SDS011;39148;53.332;6.922;2023-03-26T02:08:04;8.10;;;1.60;;
53253;SDS011;39148;53.332;6.922;2023-03-26T02:10:39;8.88;;;1.40;;
53253;SDS011;39148;53.332;6.922;2023-03-26T02:15:34;9.73;;;1.70;;
53253;SDS011;39148;53.332;6.922;2023-03-26T02:18:00;11.38;;;1.48;;
53253;SDS011;39148;53.332;6.922;2023-03-26T02:20:28;10.52;;;1.98;;
53253;SDS011;39148;53.332;6.922;2023-03-26T02:22:54;9.13;;;1.67;;
53253;SDS011;39148;53.332;6.922;2023-03-26T02:25:20;9.90;;;1.55;;
53253;SDS011;39148;53.332;6.922;2023-03-26T02:27:46;11.60;;;1.67;;
53253;SDS011;39148;53.332;6.922;2023-03-26T02:30:23;7.28;;;1.00;;
53253;SDS011;39148;53.332;6.922;2023-03-26T02:32:50;9.98;;;1.40;;
53253;SDS011;39148;53.332;6.922;2023-03-26T02:35:18;8.20;;;1.80;;
53253;SDS011;39148;53.332;6.922;2023-03-26T02:37:46;11.52;;;2.20;;
53253;SDS011;39148;53.332;6.922;2023-03-26T02:40:15;7.53;;;1.40;;
53253;SDS011;39148;53.332;6.922;2023-03-26T02:42:45;8.90;;;2.03;;
53253;SDS011;39148;53.332;6.922;2023-03-26T02:45:11;7.43;;;1.17;;
53253;SDS011;39148;53.332;6.922;2023-03-26T02:47:37;11.85;;;1.88;;
53253;SDS011;39148;53.332;6.922;2023-03-26T02:50:03;11.30;;;1.75;;
53253;SDS011;39148;53.332;6.922;2023-03-26T02:52:29;7.47;;;1.23;;
53253;SDS011;39148;53.332;6.922;2023-03-26T02:54:55;8.68;;;1.40;;
53253;SDS011;39148;53.332;6.922;2023-03-26T02:57:21;7.75;;;1.25;;
53253;SDS011;39148;53.332;6.922;2023-03-26T02:59:47;8.07;;;1.55;;
53253;SDS011;39148;53.332;6.922;2023-03-26T03:02:15;8.82;;;1.25;;
53253;SDS011;39148;53.332;6.922;2023-03-26T03:04:42;7.53;;;1.23;;
53253;SDS011;39148;53.332;6.922;2023-03-26T03:07:08;7.15;;;1.35;;
53253;SDS011;39148;53.332;6.922;2023-03-26T03:09:38;11.57;;;1.30;;
53253;SDS011;39148;53.332;6.922;2023-03-26T03:12:04;7.25;;;1.23;;
53253;SDS011;39148;53.332;6.922;2023-03-26T03:14:30;10.93;;;1.17;;
53253;SDS011;39148;53.332;6.922;2023-03-26T03:16:56;7.72;;;1.30;;
53253;SDS011;39148;53.332;6.922;2023-03-26T03:19:22;10.70;;;1.52;;
53253;SDS011;39148;53.332;6.922;2023-03-26T03:21:48;13.50;;;2.47;;
53253;SDS011;39148;53.332;6.922;2023-03-26T03:24:14;7.95;;;1.17;;
53253;SDS011;39148;53.332;6.922;2023-03-26T03:26:42;7.03;;;1.20;;
53253;SDS011;39148;53.332;6.922;2023-03-26T03:29:10;7.43;;;1.13;;
53253;SDS011;39148;53.332;6.922;2023-03-26T03:31:37;10.13;;;1.77;;
53253;SDS011;39148;53.332;6.922;2023-03-26T03:34:02;10.07;;;1.42;;
53253;SDS011;39148;53.332;6.922;2023-03-26T03:36:28;10.05;;;1.60;;
53253;SDS011;39148;53.332;6.922;2023-03-26T03:38:57;9.48;;;1.55;;
53253;SDS011;39148;53.332;6.922;2023-03-26T03:41:26;10.15;;;1.45;;
53253;SDS011;39148;53.332;6.922;2023-03-26T03:43:52;6.85;;;1.40;;
53253;SDS011;39148;53.332;6.922;2023-03-26T03:46:18;11.35;;;1.23;;
53253;SDS011;39148;53.332;6.922;2023-03-26T03:48:44;10.45;;;2.15;;
53253;SDS011;39148;53.332;6.922;2023-03-26T03:51:13;7.18;;;1.30;;
53253;SDS011;39148;53.332;6.922;2023-03-26T03:53:39;9.70;;;1.48;;
53253;SDS011;39148;53.332;6.922;2023-03-26T03:56:05;9.93;;;1.58;;
53253;SDS011;39148;53.332;6.922;2023-03-26T03:58:34;7.07;;;1.42;;
53253;SDS011;39148;53.332;6.922;2023-03-26T04:01:00;10.10;;;1.85;;
53253;SDS011;39148;53.332;6.922;2023-03-26T04:03:27;8.77;;;1.23;;
53253;SDS011;39148;53.332;6.922;2023-03-26T04:05:53;8.82;;;1.60;;
53253;SDS011;39148;53.332;6.922;2023-03-26T04:08:22;7.68;;;1.42;;
53253;SDS011;39148;53.332;6.922;2023-03-26T04:10:49;8.88;;;1.33;;
53253;SDS011;39148;53.332;6.922;2023-03-26T04:13:15;10.15;;;1.40;;
53253;SDS011;39148;53.332;6.922;2023-03-26T04:15:41;9.85;;;1.42;;
53253;SDS011;39148;53.332;6.922;2023-03-26T04:18:07;8.02;;;1.25;;
53253;SDS011;39148;53.332;6.922;2023-03-26T04:20:38;7.68;;;1.38;;
53253;SDS011;39148;53.332;6.922;2023-03-26T04:23:17;6.35;;;1.20;;
53253;SDS011;39148;53.332;6.922;2023-03-26T04:25:44;6.95;;;1.40;;
53253;SDS011;39148;53.332;6.922;2023-03-26T04:28:32;10.27;;;1.70;;
53253;SDS011;39148;53.332;6.922;2023-03-26T04:31:09;8.18;;;1.30;;
53253;SDS011;39148;53.332;6.922;2023-03-26T04:33:40;8.02;;;1.63;;
53253;SDS011;39148;53.332;6.922;2023-03-26T04:36:13;7.88;;;1.58;;
53253;SDS011;39148;53.332;6.922;2023-03-26T04:38:42;6.80;;;0.98;;
53253;SDS011;39148;53.332;6.922;2023-03-26T04:41:10;9.15;;;1.30;;
53253;SDS011;39148;53.332;6.922;2023-03-26T04:43:37;9.98;;;1.73;;
53253;SDS011;39148;53.332;6.922;2023-03-26T04:46:07;7.97;;;1.50;;
53253;SDS011;39148;53.332;6.922;2023-03-26T04:48:35;5.50;;;1.13;;
53253;SDS011;39148;53.332;6.922;2023-03-26T04:51:02;8.35;;;1.63;;
53253;SDS011;39148;53.332;6.922;2023-03-26T04:53:31;7.43;;;1.15;;
53253;SDS011;39148;53.332;6.922;2023-03-26T04:55:59;13.00;;;1.75;;
53253;SDS011;39148;53.332;6.922;2023-03-26T04:58:38;8.00;;;1.30;;
53253;SDS011;39148;53.332;6.922;2023-03-26T05:01:04;9.05;;;1.17;;
53253;SDS011;39148;53.332;6.922;2023-03-26T05:03:31;7.30;;;1.40;;
53253;SDS011;39148;53.332;6.922;2023-03-26T05:05:58;8.82;;;1.27;;
53253;SDS011;39148;53.332;6.922;2023-03-26T05:08:24;9.25;;;1.80;;
53253;SDS011;39148;53.332;6.922;2023-03-26T05:10:52;7.25;;;1.35;;
53253;SDS011;39148;53.332;6.922;2023-03-26T05:13:18;8.50;;;1.65;;
53253;SDS011;39148;53.332;6.922;2023-03-26T05:15:44;9.85;;;2.35;;
53253;SDS011;39148;53.332;6.922;2023-03-26T05:18:10;8.07;;;1.23;;
53253;SDS011;39148;53.332;6.922;2023-03-26T05:20:36;7.82;;;1.20;;
53253;SDS011;39148;53.332;6.922;2023-03-26T05:23:02;8.02;;;1.33;;
53253;SDS011;39148;53.332;6.922;2023-03-26T05:25:28;8.38;;;1.52;;
53253;SDS011;39148;53.332;6.922;2023-03-26T05:27:55;7.15;;;1.00;;
53253;SDS011;39148;53.332;6.922;2023-03-26T05:30:21;9.40;;;1.40;;
53253;SDS011;39148;53.332;6.922;2023-03-26T05:32:47;7.80;;;1.10;;
53253;SDS011;39148;53.332;6.922;2023-03-26T05:35:14;10.10;;;1.48;;
53253;SDS011;39148;53.332;6.922;2023-03-26T05:37:43;9.73;;;1.52;;
53253;SDS011;39148;53.332;6.922;2023-03-26T05:40:09;8.30;;;1.65;;
53253;SDS011;39148;53.332;6.922;2023-03-26T05:42:38;7.75;;;1.67;;
53253;SDS011;39148;53.332;6.922;2023-03-26T05:45:05;7.82;;;1.17;;
53253;SDS011;39148;53.332;6.922;2023-03-26T05:47:32;9.60;;;1.25;;
53253;SDS011;39148;53.332;6.922;2023-03-26T05:49:59;9.02;;;1.23;;
53253;SDS011;39148;53.332;6.922;2023-03-26T05:52:25;9.13;;;1.45;;
53253;SDS011;39148;53.332;6.922;2023-03-26T05:54:51;5.75;;;1.58;;
53253;SDS011;39148;53.332;6.922;2023-03-26T05:57:17;10.35;;;1.73;;
53253;SDS011;39148;53.332;6.922;2023-03-26T05:59:43;8.10;;;1.30;;
53253;SDS011;39148;53.332;6.922;2023-03-26T06:02:10;9.27;;;1.20;;
53253;SDS011;39148;53.332;6.922;2023-03-26T06:04:36;7.40;;;1.10;;
53253;SDS011;39148;53.332;6.922;2023-03-26T06:07:06;5.90;;;1.20;;
53253;SDS011;39148;53.332;6.922;2023-03-26T06:09:34;11.13;;;1.63;;
53253;SDS011;39148;53.332;6.922;2023-03-26T06:12:03;7.18;;;1.20;;
53253;SDS011;39148;53.332;6.922;2023-03-26T06:14:29;9.10;;;1.13;;
53253;SDS011;39148;53.332;6.922;2023-03-26T06:16:55;6.32;;;1.13;;
53253;SDS011;39148;53.332;6.922;2023-03-26T06:19:21;9.55;;;1.23;;
53253;SDS011;39148;53.332;6.922;2023-03-26T06:21:47;8.68;;;1.15;;
53253;SDS011;39148;53.332;6.922;2023-03-26T06:24:13;7.70;;;1.42;;
53253;SDS011;39148;53.332;6.922;2023-03-26T06:26:40;6.35;;;1.23;;
53253;SDS011;39148;53.332;6.922;2023-03-26T06:29:07;10.10;;;1.60;;
53253;SDS011;39148;53.332;6.922;2023-03-26T06:31:33;8.30;;;1.17;;
53253;SDS011;39148;53.332;6.922;2023-03-26T06:33:59;8.52;;;1.10;;
53253;SDS011;39148;53.332;6.922;2023-03-26T06:36:25;6.22;;;1.30;;
53253;SDS011;39148;53.332;6.922;2023-03-26T06:38:51;8.05;;;1.52;;
53253;SDS011;39148;53.332;6.922;2023-03-26T06:41:16;7.38;;;1.13;;
53253;SDS011;39148;53.332;6.922;2023-03-26T06:43:43;7.97;;;1.52;;
53253;SDS011;39148;53.332;6.922;2023-03-26T06:46:09;7.28;;;1.17;;
53253;SDS011;39148;53.332;6.922;2023-03-26T06:48:35;8.60;;;1.48;;
53253;SDS011;39148;53.332;6.922;2023-03-26T06:51:02;7.03;;;1.38;;
53253;SDS011;39148;53.332;6.922;2023-03-26T06:53:28;5.78;;;1.15;;
53253;SDS011;39148;53.332;6.922;2023-03-26T06:55:54;8.25;;;1.33;;
53253;SDS011;39148;53.332;6.922;2023-03-26T06:58:20;7.00;;;1.17;;
53253;SDS011;39148;53.332;6.922;2023-03-26T07:00:46;9.38;;;1.70;;
53253;SDS011;39148;53.332;6.922;2023-03-26T07:03:12;10.07;;;1.70;;
53253;SDS011;39148;53.332;6.922;2023-03-26T07:05:44;9.00;;;1.52;;
53253;SDS011;39148;53.332;6.922;2023-03-26T07:08:10;7.78;;;1.42;;
53253;SDS011;39148;53.332;6.922;2023-03-26T07:10:36;6.30;;;1.20;;
53253;SDS011;39148;53.332;6.922;2023-03-26T07:13:02;6.07;;;1.20;;
53253;SDS011;39148;53.332;6.922;2023-03-26T07:15:28;7.97;;;1.60;;
53253;SDS011;39148;53.332;6.922;2023-03-26T07:17:54;4.80;;;1.20;;
53253;SDS011;39148;53.332;6.922;2023-03-26T07:20:20;6.32;;;1.27;;
53253;SDS011;39148;53.332;6.922;2023-03-26T07:22:46;6.03;;;1.38;;
53253;SDS011;39148;53.332;6.922;2023-03-26T07:25:13;9.02;;;1.40;;
53253;SDS011;39148;53.332;6.922;2023-03-26T07:27:49;9.25;;;1.25;;
53253;SDS011;39148;53.332;6.922;2023-03-26T07:35:52;8.43;;;1.33;;
53253;SDS011;39148;53.332;6.922;2023-03-26T07:38:46;5.00;;;1.00;;
53253;SDS011;39148;53.332;6.922;2023-03-26T07:46:41;7.88;;;1.27;;
53253;SDS011;39148;53.332;6.922;2023-03-26T07:49:08;6.95;;;1.10;;
53253;SDS011;39148;53.332;6.922;2023-03-26T07:51:36;5.97;;;1.00;;
53253;SDS011;39148;53.332;6.922;2023-03-26T07:54:03;5.75;;;1.17;;
53253;SDS011;39148;53.332;6.922;2023-03-26T07:56:33;6.97;;;1.20;;
53253;SDS011;39148;53.332;6.922;2023-03-26T08:06:58;5.78;;;1.00;;
53253;SDS011;39148;53.332;6.922;2023-03-26T08:14:47;6.28;;;1.10;;
53253;SDS011;39148;53.332;6.922;2023-03-26T08:17:29;7.03;;;1.00;;
53253;SDS011;39148;53.332;6.922;2023-03-26T08:23:06;6.95;;;1.38;;
53253;SDS011;39148;53.332;6.922;2023-03-26T08:25:49;6.93;;;1.05;;
53253;SDS011;39148;53.332;6.922;2023-03-26T08:30:43;4.97;;;1.15;;
53253;SDS011;39148;53.332;6.922;2023-03-26T08:33:16;5.15;;;0.75;;
53253;SDS011;39148;53.332;6.922;2023-03-26T08:35:43;6.25;;;1.02;;
53253;SDS011;39148;53.332;6.922;2023-03-26T08:38:13;5.50;;;1.20;;
53253;SDS011;39148;53.332;6.922;2023-03-26T08:48:51;5.75;;;0.98;;
53253;SDS011;39148;53.332;6.922;2023-03-26T08:57:05;4.25;;;0.88;;
53253;SDS011;39148;53.332;6.922;2023-03-26T09:08:28;6.10;;;1.02;;
53253;SDS011;39148;53.332;6.922;2023-03-26T09:28:40;5.00;;;0.90;;
53253;SDS011;39148;53.332;6.922;2023-03-26T09:36:50;6.13;;;0.98;;
53253;SDS011;39148;53.332;6.922;2023-03-26T09:45:30;5.40;;;0.85;;
53253;SDS011;39148;53.332;6.922;2023-03-26T09:50:42;4.78;;;1.00;;
53253;SDS011;39148;53.332;6.922;2023-03-26T09:55:59;5.35;;;1.10;;
53253;SDS011;39148;53.332;6.922;2023-03-26T10:01:23;6.32;;;1.05;;
53253;SDS011;39148;53.332;6.922;2023-03-26T10:03:58;6.40;;;0.98;;
53253;SDS011;39148;53.332;6.922;2023-03-26T10:09:33;5.72;;;1.30;;
53253;SDS011;39148;53.332;6.922;2023-03-26T10:12:05;5.97;;;0.90;;
53253;SDS011;39148;53.332;6.922;2023-03-26T10:14:38;5.55;;;1.20;;
53253;SDS011;39148;53.332;6.922;2023-03-26T10:33:33;5.03;;;1.10;;
53253;SDS011;39148;53.332;6.922;2023-03-26T10:48:16;5.43;;;1.10;;
53253;SDS011;39148;53.332;6.922;2023-03-26T10:54:00;4.32;;;0.70;;
53253;SDS011;39148;53.332;6.922;2023-03-26T10:56:50;4.38;;;1.00;;
53253;SDS011;39148;53.332;6.922;2023-03-26T10:59:16;4.38;;;0.82;;
53253;SDS011;39148;53.332;6.922;2023-03-26T11:09:58;5.57;;;0.88;;
53253;SDS011;39148;53.332;6.922;2023-03-26T11:12:31;5.80;;;0.98;;
53253;SDS011;39148;53.332;6.922;2023-03-26T11:18:03;6.25;;;1.20;;
53253;SDS011;39148;53.332;6.922;2023-03-26T11:20:45;6.40;;;1.15;;
53253;SDS011;39148;53.332;6.922;2023-03-26T11:29:01;4.47;;;0.93;;
53253;SDS011;39148;53.332;6.922;2023-03-26T11:34:03;4.93;;;0.82;;
53253;SDS011;39148;53.332;6.922;2023-03-26T11:36:38;5.50;;;0.88;;
53253;SDS011;39148;53.332;6.922;2023-03-26T11:39:11;4.68;;;0.80;;
53253;SDS011;39148;53.332;6.922;2023-03-26T11:41:42;6.82;;;1.25;;
53253;SDS011;39148;53.332;6.922;2023-03-26T11:44:16;4.97;;;0.95;;
53253;SDS011;39148;53.332;6.922;2023-03-26T11:46:45;5.00;;;0.93;;
53253;SDS011;39148;53.332;6.922;2023-03-26T11:49:16;6.90;;;1.17;;
53253;SDS011;39148;53.332;6.922;2023-03-26T11:51:45;6.20;;;0.75;;
53253;SDS011;39148;53.332;6.922;2023-03-26T11:54:12;4.68;;;1.13;;
53253;SDS011;39148;53.332;6.922;2023-03-26T11:56:46;4.88;;;0.80;;
53253;SDS011;39148;53.332;6.922;2023-03-26T11:59:28;6.63;;;1.30;;
53253;SDS011;39148;53.332;6.922;2023-03-26T12:04:51;6.50;;;1.05;;
53253;SDS011;39148;53.332;6.922;2023-03-26T12:07:36;6.40;;;1.05;;
53253;SDS011;39148;53.332;6.922;2023-03-26T12:16:08;4.45;;;0.85;;
53253;SDS011;39148;53.332;6.922;2023-03-26T12:18:36;3.78;;;0.90;;
53253;SDS011;39148;53.332;6.922;2023-03-26T12:21:08;4.38;;;0.93;;
53253;SDS011;39148;53.332;6.922;2023-03-26T12:23:43;6.85;;;0.98;;
53253;SDS011;39148;53.332;6.922;2023-03-26T12:26:16;3.92;;;1.17;;
53253;SDS011;39148;53.332;6.922;2023-03-26T12:28:45;4.90;;;1.17;;
53253;SDS011;39148;53.332;6.922;2023-03-26T12:31:13;4.55;;;1.08;;
53253;SDS011;39148;53.332;6.922;2023-03-26T12:33:44;6.57;;;1.10;;
53253;SDS011;39148;53.332;6.922;2023-03-26T12:36:27;4.93;;;0.82;;
53253;SDS011;39148;53.332;6.922;2023-03-26T12:38:57;4.78;;;0.70;;
53253;SDS011;39148;53.332;6.922;2023-03-26T12:41:35;3.13;;;0.70;;
53253;SDS011;39148;53.332;6.922;2023-03-26T12:46:48;6.65;;;1.08;;
53253;SDS011;39148;53.332;6.922;2023-03-26T12:49:18;4.63;;;0.93;;
53253;SDS011;39148;53.332;6.922;2023-03-26T12:51:52;6.25;;;1.00;;
53253;SDS011;39148;53.332;6.922;2023-03-26T12:57:21;5.13;;;1.35;;
53253;SDS011;39148;53.332;6.922;2023-03-26T13:08:51;2.97;;;0.70;;
53253;SDS011;39148;53.332;6.922;2023-03-26T13:28:10;4.50;;;0.75;;
53253;SDS011;39148;53.332;6.922;2023-03-26T13:33:25;5.05;;;1.00;;
53253;SDS011;39148;53.332;6.922;2023-03-26T13:41:44;4.25;;;1.00;;
53253;SDS011;39148;53.332;6.922;2023-03-26T13:44:50;5.25;;;0.98;;
53253;SDS011;39148;53.332;6.922;2023-03-26T13:47:32;4.32;;;0.75;;
53253;SDS011;39148;53.332;6.922;2023-03-26T13:50:02;8.02;;;1.10;;
53253;SDS011;39148;53.332;6.922;2023-03-26T13:52:39;5.97;;;1.10;;
53253;SDS011;39148;53.332;6.922;2023-03-26T14:03:56;6.47;;;0.93;;
53253;SDS011;39148;53.332;6.922;2023-03-26T14:06:40;6.40;;;0.93;;
53253;SDS011;39148;53.332;6.922;2023-03-26T14:11:49;6.00;;;1.00;;
53253;SDS011;39148;53.332;6.922;2023-03-26T14:14:44;3.47;;;0.77;;
53253;SDS011;39148;53.332;6.922;2023-03-26T14:47:16;5.03;;;0.88;;
53253;SDS011;39148;53.332;6.922;2023-03-26T14:57:59;3.20;;;0.57;;
53253;SDS011;39148;53.332;6.922;2023-03-26T15:35:16;5.80;;;1.17;;
53253;SDS011;39148;53.332;6.922;2023-03-26T15:40:39;9.45;;;1.08;;
53253;SDS011;39148;53.332;6.922;2023-03-26T15:43:13;3.88;;;0.93;;
53253;SDS011;39148;53.332;6.922;2023-03-26T16:04:54;6.05;;;1.00;;
53253;SDS011;39148;53.332;6.922;2023-03-26T16:07:47;4.82;;;1.27;;
53253;SDS011;39148;53.332;6.922;2023-03-26T16:10:34;5.20;;;1.23;;
53253;SDS011;39148;53.332;6.922;2023-03-26T16:34:56;4.40;;;1.10;;
53253;SDS011;39148;53.332;6.922;2023-03-26T16:42:49;7.15;;;1.08;;
53253;SDS011;39148;53.332;6.922;2023-03-26T16:48:12;9.45;;;1.25;;
53253;SDS011;39148;53.332;6.922;2023-03-26T16:57:09;5.82;;;1.15;;
53253;SDS011;39148;53.332;6.922;2023-03-26T17:02:31;6.45;;;1.23;;
53253;SDS011;39148;53.332;6.922;2023-03-26T17:05:12;6.78;;;1.25;;
53253;SDS011;39148;53.332;6.922;2023-03-26T17:07:47;4.07;;;0.98;;
53253;SDS011;39148;53.332;6.922;2023-03-26T17:20:54;3.60;;;0.88;;
53253;SDS011;39148;53.332;6.922;2023-03-26T17:23:28;5.43;;;0.90;;
53253;SDS011;39148;53.332;6.922;2023-03-26T17:28:57;4.15;;;0.95;;
53253;SDS011;39148;53.332;6.922;2023-03-26T17:42:29;4.45;;;0.85;;
53253;SDS011;39148;53.332;6.922;2023-03-26T17:47:55;4.65;;;0.95;;
53253;SDS011;39148;53.332;6.922;2023-03-26T17:50:49;8.17;;;1.00;;
53253;SDS011;39148;53.332;6.922;2023-03-26T17:53:26;4.82;;;0.80;;
53253;SDS011;39148;53.332;6.922;2023-03-26T17:55:56;4.65;;;0.75;;
53253;SDS011;39148;53.332;6.922;2023-03-26T17:58:40;4.85;;;0.82;;
53253;SDS011;39148;53.332;6.922;2023-03-26T18:01:25;6.68;;;1.00;;
53253;SDS011;39148;53.332;6.922;2023-03-26T18:04:00;3.95;;;0.80;;
53253;SDS011;39148;53.332;6.922;2023-03-26T18:08:57;5.05;;;0.80;;
53253;SDS011;39148;53.332;6.922;2023-03-26T18:15:02;5.20;;;0.98;;
53253;SDS011;39148;53.332;6.922;2023-03-26T18:17:20;6.25;;;0.80;;
53253;SDS011;39148;53.332;6.922;2023-03-26T18:19:53;6.13;;;0.88;;
53253;SDS011;39148;53.332;6.922;2023-03-26T18:22:27;5.10;;;0.80;;
53253;SDS011;39148;53.332;6.922;2023-03-26T18:24:58;4.75;;;0.75;;
53253;SDS011;39148;53.332;6.922;2023-03-26T18:27:28;5.05;;;0.90;;
53253;SDS011;39148;53.332;6.922;2023-03-26T18:30:08;4.90;;;1.00;;
53253;SDS011;39148;53.332;6.922;2023-03-26T18:32:48;7.05;;;0.82;;
53253;SDS011;39148;53.332;6.922;2023-03-26T18:35:22;4.28;;;0.75;;
53253;SDS011;39148;53.332;6.922;2023-03-26T18:37:49;5.90;;;1.48;;
53253;SDS011;39148;53.332;6.922;2023-03-26T18:40:23;5.90;;;0.70;;
53253;SDS011;39148;53.332;6.922;2023-03-26T18:42:57;5.13;;;0.75;;
53253;SDS011;39148;53.332;6.922;2023-03-26T18:45:27;4.25;;;0.80;;
53253;SDS011;39148;53.332;6.922;2023-03-26T18:47:57;7.03;;;1.13;;
53253;SDS011;39148;53.332;6.922;2023-03-26T18:50:27;4.93;;;0.90;;
53253;SDS011;39148;53.332;6.922;2023-03-26T18:52:56;2.75;;;0.68;;
53253;SDS011;39148;53.332;6.922;2023-03-26T18:55:25;5.82;;;0.80;;
53253;SDS011;39148;53.332;6.922;2023-03-26T19:00:21;4.38;;;0.70;;
53253;SDS011;39148;53.332;6.922;2023-03-26T19:03:01;4.20;;;0.73;;
53253;SDS011;39148;53.332;6.922;2023-03-26T19:05:29;6.22;;;0.90;;
53253;SDS011;39148;53.332;6.922;2023-03-26T19:07:57;3.95;;;0.80;;
53253;SDS011;39148;53.332;6.922;2023-03-26T19:10:27;5.47;;;1.10;;
53253;SDS011;39148;53.332;6.922;2023-03-26T19:13:01;7.20;;;1.08;;
53253;SDS011;39148;53.332;6.922;2023-03-26T19:15:31;4.60;;;0.93;;
53253;SDS011;39148;53.332;6.922;2023-03-26T19:18:01;5.20;;;0.80;;
53253;SDS011;39148;53.332;6.922;2023-03-26T19:20:52;3.35;;;0.93;;
53253;SDS011;39148;53.332;6.922;2023-03-26T19:23:27;4.82;;;0.73;;
53253;SDS011;39148;53.332;6.922;2023-03-26T19:25:57;6.10;;;0.82;;
53253;SDS011;39148;53.332;6.922;2023-03-26T19:28:30;6.68;;;1.00;;
53253;SDS011;39148;53.332;6.922;2023-03-26T19:31:18;5.18;;;0.70;;
53253;SDS011;39148;53.332;6.922;2023-03-26T19:33:52;5.55;;;1.05;;
53253;SDS011;39148;53.332;6.922;2023-03-26T19:36:28;8.43;;;1.13;;
53253;SDS011;39148;53.332;6.922;2023-03-26T19:41:35;5.10;;;0.77;;
53253;SDS011;39148;53.332;6.922;2023-03-26T19:46:49;6.40;;;0.98;;
53253;SDS011;39148;53.332;6.922;2023-03-26T19:51:50;7.68;;;1.10;;
53253;SDS011;39148;53.332;6.922;2023-03-26T19:54:17;6.38;;;1.27;;
53253;SDS011;39148;53.332;6.922;2023-03-26T19:56:44;3.58;;;0.73;;
53253;SDS011;39148;53.332;6.922;2023-03-26T19:59:09;7.47;;;1.55;;
53253;SDS011;39148;53.332;6.922;2023-03-26T20:01:35;4.10;;;0.60;;
53253;SDS011;39148;53.332;6.922;2023-03-26T20:04:04;4.13;;;0.82;;
53253;SDS011;39148;53.332;6.922;2023-03-26T20:06:30;4.40;;;0.60;;
53253;SDS011;39148;53.332;6.922;2023-03-26T20:08:57;6.82;;;1.10;;
53253;SDS011;39148;53.332;6.922;2023-03-26T20:11:33;5.40;;;0.80;;
53253;SDS011;39148;53.332;6.922;2023-03-26T20:14:12;5.18;;;1.00;;
53253;SDS011;39148;53.332;6.922;2023-03-26T20:16:40;6.88;;;1.20;;
53253;SDS011;39148;53.332;6.922;2023-03-26T20:19:07;4.50;;;0.70;;
53253;SDS011;39148;53.332;6.922;2023-03-26T20:21:33;8.15;;;0.98;;
53253;SDS011;39148;53.332;6.922;2023-03-26T20:23:59;7.20;;;1.02;;
53253;SDS011;39148;53.332;6.922;2023-03-26T20:26:25;4.00;;;1.15;;
53253;SDS011;39148;53.332;6.922;2023-03-26T20:28:51;4.93;;;0.77;;
53253;SDS011;39148;53.332;6.922;2023-03-26T20:31:18;6.22;;;1.20;;
53253;SDS011;39148;53.332;6.922;2023-03-26T20:33:46;7.65;;;0.88;;
53253;SDS011;39148;53.332;6.922;2023-03-26T20:36:14;5.43;;;0.65;;
53253;SDS011;39148;53.332;6.922;2023-03-26T20:38:40;6.35;;;0.90;;
53253;SDS011;39148;53.332;6.922;2023-03-26T20:41:18;3.97;;;0.80;;
53253;SDS011;39148;53.332;6.922;2023-03-26T20:43:47;8.73;;;1.00;;
53253;SDS011;39148;53.332;6.922;2023-03-26T20:46:20;4.35;;;0.80;;
53253;SDS011;39148;53.332;6.922;2023-03-26T20:48:47;6.40;;;0.90;;
53253;SDS011;39148;53.332;6.922;2023-03-26T20:51:14;5.47;;;1.40;;
53253;SDS011;39148;53.332;6.922;2023-03-26T20:53:40;6.07;;;1.05;;
53253;SDS011;39148;53.332;6.922;2023-03-26T20:56:10;6.22;;;0.77;;
53253;SDS011;39148;53.332;6.922;2023-03-26T20:58:37;6.57;;;1.10;;
53253;SDS011;39148;53.332;6.922;2023-03-26T21:01:04;5.22;;;1.00;;
53253;SDS011;39148;53.332;6.922;2023-03-26T21:03:30;7.25;;;1.50;;
53253;SDS011;39148;53.332;6.922;2023-03-26T21:06:00;5.25;;;0.75;;
53253;SDS011;39148;53.332;6.922;2023-03-26T21:08:27;7.43;;;1.23;;
53253;SDS011;39148;53.332;6.922;2023-03-26T21:11:00;5.90;;;0.82;;
53253;SDS011;39148;53.332;6.922;2023-03-26T21:16:05;5.65;;;0.65;;
53253;SDS011;39148;53.332;6.922;2023-03-26T21:18:32;5.43;;;0.85;;
53253;SDS011;39148;53.332;6.922;2023-03-26T21:30:49;5.63;;;0.90;;
53253;SDS011;39148;53.332;6.922;2023-03-26T21:33:15;5.65;;;0.70;;
53253;SDS011;39148;53.332;6.922;2023-03-26T21:35:41;6.18;;;1.10;;
53253;SDS011;39148;53.332;6.922;2023-03-26T21:38:08;6.63;;;0.82;;
53253;SDS011;39148;53.332;6.922;2023-03-26T21:40:35;5.13;;;0.80;;
53253;SDS011;39148;53.332;6.922;2023-03-26T21:43:02;4.95;;;0.80;;
53253;SDS011;39148;53.332;6.922;2023-03-26T21:45:28;5.60;;;0.85;;
53253;SDS011;39148;53.332;6.922;2023-03-26T21:47:54;5.07;;;0.70;;
53253;SDS011;39148;53.332;6.922;2023-03-26T21:50:20;4.72;;;0.73;;
53253;SDS011;39148;53.332;6.922;2023-03-26T21:52:48;6.13;;;0.90;;
53253;SDS011;39148;53.332;6.922;2023-03-26T21:55:21;3.42;;;0.63;;
53253;SDS011;39148;53.332;6.922;2023-03-26T21:57:54;5.20;;;0.75;;
53253;SDS011;39148;53.332;6.922;2023-03-26T22:03:24;6.63;;;1.17;;